Time;durP1;ratioP1;P1;durP2;ratioP2;P2;SDS_P1;SDS_P2;PMS_P1;PMS_P2;Temp;Humidity;BMP_temperature;BMP_pressure;BME280_temperature;BME280_humidity;BME280_pressure;Samples;Min_cycle;Max_cycle;Signal;HPM_P1;HPM_P2
2021/08/12 00:00:47;;;;;;;12.10;8.53;;;;;;;;;;4991906;28;20449;-63
2021/08/12 00:03:14;;;;;;;12.43;8.37;;;;;;;;;;4984078;28;20427;-63
2021/08/12 00:05:40;;;;;;;11.77;8.07;;;;;;;;;;4997182;28;20444;-62
2021/08/12 00:08:06;;;;;;;12.30;8.20;;;;;;;;;;4993575;28;20420;-61
2021/08/12 00:10:32;;;;;;;11.03;8.23;;;;;;;;;;4996570;28;20763;-62
2021/08/12 00:12:58;;;;;;;12.97;8.03;;;;;;;;;;4996574;28;20493;-62
2021/08/12 00:15:24;;;;;;;9.90;7.60;;;;;;;;;;4996834;28;20754;-62
2021/08/12 00:17:52;;;;;;;11.73;8.47;;;;;;;;;;4983800;28;20432;-62
2021/08/12 00:20:18;;;;;;;12.63;8.50;;;;;;;;;;4995985;28;20428;-63
2021/08/12 00:22:44;;;;;;;12.50;8.03;;;;;;;;;;4995857;28;20409;-62
2021/08/12 00:25:10;;;;;;;12.40;7.50;;;;;;;;;;4996168;28;20409;-62
2021/08/12 00:27:37;;;;;;;11.80;7.67;;;;;;;;;;4986505;28;20787;-64
2021/08/12 00:30:03;;;;;;;10.77;8.30;;;;;;;;;;4996173;28;20445;-64
2021/08/12 00:32:29;;;;;;;12.43;7.87;;;;;;;;;;4996636;28;20452;-62
2021/08/12 00:34:55;;;;;;;10.23;8.60;;;;;;;;;;4995266;28;20928;-63
2021/08/12 00:37:21;;;;;;;13.60;8.50;;;;;;;;;;4995883;28;20872;-62
2021/08/12 00:39:47;;;;;;;11.47;8.13;;;;;;;;;;4995807;28;20975;-64
2021/08/12 00:42:13;;;;;;;10.00;8.87;;;;;;;;;;4996887;28;20780;-62
2021/08/12 00:44:39;;;;;;;13.13;8.87;;;;;;;;;;4995250;28;20531;-63
2021/08/12 00:47:05;;;;;;;10.40;7.87;;;;;;;;;;4995833;28;20408;-63
2021/08/12 00:49:36;;;;;;;10.63;8.03;;;;;;;;;;4992643;28;20799;-62
2021/08/12 00:52:02;;;;;;;8.20;7.40;;;;;;;;;;4992063;28;20423;-63
2021/08/12 00:54:29;;;;;;;12.77;8.20;;;;;;;;;;4995059;28;20511;-63
2021/08/12 00:56:55;;;;;;;12.97;8.47;;;;;;;;;;4995275;28;20428;-63
2021/08/12 00:59:21;;;;;;;11.90;8.43;;;;;;;;;;4995940;28;20806;-62
2021/08/12 01:01:47;;;;;;;12.70;8.73;;;;;;;;;;4997007;28;20581;-63
2021/08/12 01:04:13;;;;;;;15.10;9.87;;;;;;;;;;4993419;28;20440;-64
2021/08/12 01:06:49;;;;;;;10.90;8.20;;;;;;;;;;4994875;28;20420;-64
2021/08/12 01:09:30;;;;;;;11.27;8.50;;;;;;;;;;4993352;28;20438;-63
2021/08/12 01:11:58;;;;;;;10.67;7.77;;;;;;;;;;4996083;28;20955;-64
2021/08/12 01:14:53;;;;;;;14.87;8.50;;;;;;;;;;4995169;28;20447;-61
2021/08/12 01:17:21;;;;;;;12.83;8.57;;;;;;;;;;4982863;28;20475;-62
2021/08/12 01:20:00;;;;;;;13.13;9.60;;;;;;;;;;4990561;28;20468;-63
2021/08/12 01:22:27;;;;;;;15.80;9.63;;;;;;;;;;4996068;28;20424;-63
2021/08/12 01:24:55;;;;;;;11.53;8.23;;;;;;;;;;4994929;28;20432;-63
2021/08/12 01:27:22;;;;;;;11.87;9.20;;;;;;;;;;4995756;28;20409;-63
2021/08/12 01:29:54;;;;;;;14.40;9.23;;;;;;;;;;4999443;28;20424;-63
2021/08/12 01:32:27;;;;;;;11.77;9.00;;;;;;;;;;4996158;28;20491;-63
2021/08/12 01:34:58;;;;;;;10.73;8.27;;;;;;;;;;4985547;28;20924;-63
2021/08/12 01:37:27;;;;;;;16.10;9.40;;;;;;;;;;4974727;28;20941;-63
2021/08/12 01:39:53;;;;;;;15.93;8.70;;;;;;;;;;4983157;28;20424;-64
2021/08/12 01:42:20;;;;;;;9.37;7.57;;;;;;;;;;4994680;28;20420;-62
2021/08/12 01:44:46;;;;;;;15.10;8.90;;;;;;;;;;4993643;28;20845;-64
2021/08/12 01:47:13;;;;;;;14.40;10.13;;;;;;;;;;4995139;28;20792;-63
2021/08/12 01:49:42;;;;;;;19.13;10.07;;;;;;;;;;4994942;28;20846;-63
2021/08/12 01:52:09;;;;;;;12.00;9.40;;;;;;;;;;4975801;28;20476;-62
2021/08/12 01:54:36;;;;;;;16.07;8.87;;;;;;;;;;4978968;28;20433;-62
2021/08/12 01:57:02;;;;;;;13.57;9.67;;;;;;;;;;4994378;28;20415;-62
2021/08/12 01:59:29;;;;;;;12.10;8.57;;;;;;;;;;4995192;28;20404;-62
2021/08/12 02:01:56;;;;;;;13.27;8.70;;;;;;;;;;4992666;28;20460;-62
2021/08/12 02:04:22;;;;;;;13.07;8.57;;;;;;;;;;4995213;28;20404;-62
2021/08/12 02:06:49;;;;;;;10.10;7.90;;;;;;;;;;4982603;28;20957;-62
2021/08/12 02:09:16;;;;;;;12.47;8.43;;;;;;;;;;4995142;28;20462;-62
2021/08/12 02:11:44;;;;;;;16.20;10.30;;;;;;;;;;4994697;28;20467;-62
2021/08/12 02:14:10;;;;;;;10.83;8.10;;;;;;;;;;4995042;28;20506;-63
2021/08/12 02:16:36;;;;;;;13.13;8.80;;;;;;;;;;4993432;28;20431;-63
2021/08/12 02:19:04;;;;;;;13.60;9.00;;;;;;;;;;4996168;28;20408;-63
2021/08/12 02:21:33;;;;;;;11.67;8.43;;;;;;;;;;4993890;28;20459;-61
2021/08/12 02:24:02;;;;;;;13.23;9.57;;;;;;;;;;4995007;28;20404;-64
2021/08/12 02:26:36;;;;;;;13.17;8.93;;;;;;;;;;4993618;28;20787;-63
2021/08/12 02:29:03;;;;;;;12.93;9.60;;;;;;;;;;4996131;28;20539;-63
2021/08/12 02:31:30;;;;;;;11.23;8.67;;;;;;;;;;4994114;28;20595;-62
2021/08/12 02:33:57;;;;;;;9.30;7.80;;;;;;;;;;4993537;28;20468;-62
2021/08/12 02:36:23;;;;;;;11.47;9.37;;;;;;;;;;4986766;28;20417;-63
2021/08/12 02:38:50;;;;;;;12.87;9.40;;;;;;;;;;4992052;28;20463;-61
2021/08/12 02:41:18;;;;;;;12.37;9.47;;;;;;;;;;4993395;28;21007;-62
2021/08/12 02:43:45;;;;;;;14.70;9.37;;;;;;;;;;4994280;28;20909;-61
2021/08/12 02:46:12;;;;;;;16.43;9.57;;;;;;;;;;4992856;28;20467;-62
2021/08/12 02:48:38;;;;;;;15.77;9.10;;;;;;;;;;4995474;28;20796;-62
2021/08/12 02:51:05;;;;;;;12.50;9.17;;;;;;;;;;5002579;28;20480;-63
2021/08/12 02:53:32;;;;;;;10.43;8.80;;;;;;;;;;4994510;28;20460;-63
2021/08/12 02:55:59;;;;;;;12.13;9.57;;;;;;;;;;4996351;28;20428;-64
2021/08/12 02:58:31;;;;;;;12.13;9.33;;;;;;;;;;4999697;28;20929;-63
2021/08/12 03:00:57;;;;;;;9.43;7.67;;;;;;;;;;4994594;28;20448;-63
2021/08/12 03:03:25;;;;;;;10.03;8.30;;;;;;;;;;4995618;28;20877;-63
2021/08/12 03:05:51;;;;;;;15.43;9.43;;;;;;;;;;4986214;28;20426;-62
2021/08/12 03:08:19;;;;;;;12.70;8.60;;;;;;;;;;4991903;28;20849;-63
2021/08/12 03:10:45;;;;;;;12.23;8.37;;;;;;;;;;4994605;28;20456;-62
2021/08/12 03:13:11;;;;;;;10.63;8.40;;;;;;;;;;4995765;28;20546;-62
2021/08/12 03:15:39;;;;;;;13.43;9.00;;;;;;;;;;4995135;28;20425;-63
2021/08/12 03:18:05;;;;;;;9.83;8.10;;;;;;;;;;4995470;28;20430;-62
2021/08/12 03:20:31;;;;;;;13.37;9.37;;;;;;;;;;4994581;28;20448;-62
2021/08/12 03:22:58;;;;;;;15.70;9.03;;;;;;;;;;4995198;28;20423;-62
2021/08/12 03:25:24;;;;;;;10.53;9.30;;;;;;;;;;4995257;28;20415;-63
2021/08/12 03:27:50;;;;;;;10.47;9.37;;;;;;;;;;4986723;28;20778;-63
2021/08/12 03:30:17;;;;;;;12.90;8.97;;;;;;;;;;4978954;28;20433;-64
2021/08/12 03:32:43;;;;;;;12.53;10.03;;;;;;;;;;4989381;28;20460;-64
2021/08/12 03:35:10;;;;;;;11.80;9.97;;;;;;;;;;4992726;28;20417;-63
2021/08/12 03:37:36;;;;;;;12.63;9.43;;;;;;;;;;4990439;28;20441;-63
2021/08/12 03:40:02;;;;;;;14.63;9.47;;;;;;;;;;4979468;28;20421;-64
2021/08/12 03:42:28;;;;;;;16.03;9.87;;;;;;;;;;4996443;28;20433;-63
2021/08/12 03:44:54;;;;;;;13.67;9.60;;;;;;;;;;4999312;28;20412;-63
2021/08/12 03:47:20;;;;;;;12.70;9.63;;;;;;;;;;4996693;28;20444;-64
2021/08/12 03:49:46;;;;;;;13.87;9.53;;;;;;;;;;4997005;28;20428;-63
2021/08/12 03:52:12;;;;;;;15.23;10.27;;;;;;;;;;4995901;28;20435;-63
2021/08/12 03:54:39;;;;;;;15.60;9.10;;;;;;;;;;4999400;28;20409;-63
2021/08/12 03:57:06;;;;;;;12.67;9.60;;;;;;;;;;4997955;28;20429;-63
2021/08/12 03:59:32;;;;;;;11.93;8.57;;;;;;;;;;4981315;28;20428;-63
2021/08/12 04:01:59;;;;;;;13.80;9.80;;;;;;;;;;4990012;28;20456;-62
2021/08/12 04:04:25;;;;;;;16.60;11.17;;;;;;;;;;4998986;28;20425;-63
2021/08/12 04:06:51;;;;;;;16.87;10.00;;;;;;;;;;4997817;28;20428;-61
2021/08/12 04:09:18;;;;;;;14.43;10.33;;;;;;;;;;4998291;28;20463;-62
2021/08/12 04:11:44;;;;;;;12.83;9.73;;;;;;;;;;4997967;28;20456;-61
2021/08/12 04:14:10;;;;;;;12.17;9.97;;;;;;;;;;4998656;28;20892;-62
2021/08/12 04:16:36;;;;;;;11.07;9.60;;;;;;;;;;4996374;28;20851;-63
2021/08/12 04:19:03;;;;;;;16.40;10.10;;;;;;;;;;4998056;28;20473;-63
2021/08/12 04:21:29;;;;;;;17.27;9.33;;;;;;;;;;4997565;28;20479;-64
2021/08/12 04:23:55;;;;;;;14.70;10.73;;;;;;;;;;4999221;28;20431;-63
2021/08/12 04:26:27;;;;;;;17.73;10.50;;;;;;;;;;4998026;28;20924;-63
2021/08/12 04:28:53;;;;;;;15.73;9.80;;;;;;;;;;4998772;28;20413;-63
2021/08/12 04:31:19;;;;;;;14.73;10.90;;;;;;;;;;4997331;28;20780;-63
2021/08/12 04:33:45;;;;;;;13.87;10.80;;;;;;;;;;4999318;28;20824;-63
2021/08/12 04:36:11;;;;;;;15.43;11.10;;;;;;;;;;4997111;28;20925;-63
2021/08/12 04:38:37;;;;;;;14.80;10.50;;;;;;;;;;4996762;28;20424;-63
2021/08/12 04:41:03;;;;;;;13.90;10.33;;;;;;;;;;4996857;28;20487;-62
2021/08/12 04:43:30;;;;;;;17.33;10.50;;;;;;;;;;4999304;28;20467;-64
2021/08/12 04:45:56;;;;;;;13.40;9.60;;;;;;;;;;4997189;28;20491;-64
2021/08/12 04:48:22;;;;;;;19.43;11.03;;;;;;;;;;4996476;28;20429;-63
2021/08/12 04:50:48;;;;;;;16.20;10.60;;;;;;;;;;4996685;28;20515;-62
2021/08/12 04:53:14;;;;;;;12.50;10.63;;;;;;;;;;4998043;28;20460;-63
2021/08/12 04:55:41;;;;;;;15.40;11.33;;;;;;;;;;4997510;28;20413;-63
2021/08/12 04:58:07;;;;;;;17.70;11.40;;;;;;;;;;4995663;28;20491;-63
2021/08/12 05:00:33;;;;;;;16.43;10.67;;;;;;;;;;4995446;28;20412;-63
2021/08/12 05:03:00;;;;;;;16.17;10.30;;;;;;;;;;4995783;28;20456;-61
2021/08/12 05:05:26;;;;;;;11.83;10.23;;;;;;;;;;4995488;28;20405;-63
2021/08/12 05:07:52;;;;;;;13.57;9.93;;;;;;;;;;4994194;28;20429;-63
2021/08/12 05:10:18;;;;;;;15.33;11.50;;;;;;;;;;4995152;28;20956;-62
2021/08/12 05:12:45;;;;;;;15.73;10.50;;;;;;;;;;4995739;28;20492;-62
2021/08/12 05:15:11;;;;;;;12.80;10.33;;;;;;;;;;4995089;28;20404;-63
2021/08/12 05:17:37;;;;;;;15.63;11.63;;;;;;;;;;4993395;28;20451;-63
2021/08/12 05:20:04;;;;;;;12.27;9.70;;;;;;;;;;4996854;28;20413;-63
2021/08/12 05:22:30;;;;;;;12.07;9.80;;;;;;;;;;4992792;28;20435;-65
2021/08/12 05:24:56;;;;;;;15.20;10.17;;;;;;;;;;4992243;28;20432;-62
2021/08/12 05:27:22;;;;;;;14.20;10.00;;;;;;;;;;4992978;28;20825;-60
2021/08/12 05:29:48;;;;;;;22.27;10.70;;;;;;;;;;4994818;28;20901;-56
2021/08/12 05:32:14;;;;;;;16.83;10.93;;;;;;;;;;4995056;28;20435;-62
2021/08/12 05:34:40;;;;;;;14.10;10.83;;;;;;;;;;4994927;28;20412;-59
2021/08/12 05:37:06;;;;;;;16.10;11.07;;;;;;;;;;4994167;28;20512;-60
2021/08/12 05:39:32;;;;;;;16.67;9.80;;;;;;;;;;4992876;28;20411;-60
2021/08/12 05:41:58;;;;;;;11.13;8.97;;;;;;;;;;4994003;28;20470;-61
2021/08/12 05:44:24;;;;;;;11.30;8.93;;;;;;;;;;4994997;28;20421;-60
2021/08/12 05:46:50;;;;;;;14.50;9.47;;;;;;;;;;4994042;28;20429;-60
2021/08/12 05:49:16;;;;;;;10.90;8.77;;;;;;;;;;4994744;28;20420;-62
2021/08/12 05:51:42;;;;;;;11.63;9.17;;;;;;;;;;4995027;28;20453;-62
2021/08/12 05:54:08;;;;;;;15.20;9.60;;;;;;;;;;4994740;28;20467;-59
2021/08/12 05:56:35;;;;;;;12.03;8.53;;;;;;;;;;4990445;28;20427;-59
2021/08/12 05:59:01;;;;;;;13.57;8.53;;;;;;;;;;4977998;28;20418;-61
2021/08/12 06:01:28;;;;;;;15.80;9.53;;;;;;;;;;4987566;28;20827;-62
2021/08/12 06:03:54;;;;;;;23.90;11.10;;;;;;;;;;4986167;28;20504;-66
2021/08/12 06:06:20;;;;;;;13.57;8.07;;;;;;;;;;4986998;28;20484;-63
2021/08/12 06:08:46;;;;;;;13.37;9.70;;;;;;;;;;4993151;28;20427;-64
2021/08/12 06:11:12;;;;;;;15.33;9.03;;;;;;;;;;4991357;28;20531;-64
2021/08/12 06:13:38;;;;;;;15.40;9.60;;;;;;;;;;4993018;28;20477;-63
2021/08/12 06:16:06;;;;;;;10.40;8.50;;;;;;;;;;4992859;28;20431;-63
2021/08/12 06:18:32;;;;;;;12.50;8.57;;;;;;;;;;4988615;28;20417;-62
2021/08/12 06:20:58;;;;;;;14.10;9.27;;;;;;;;;;4987715;28;20437;-63
2021/08/12 06:23:24;;;;;;;11.30;9.00;;;;;;;;;;4985512;28;20433;-62
2021/08/12 06:25:51;;;;;;;11.50;9.57;;;;;;;;;;4993028;28;20448;-62
2021/08/12 06:28:17;;;;;;;12.50;8.60;;;;;;;;;;4982999;28;20842;-63
2021/08/12 06:30:43;;;;;;;12.33;8.30;;;;;;;;;;4992316;28;20843;-58
2021/08/12 06:33:09;;;;;;;13.13;8.40;;;;;;;;;;4987059;28;20988;-60
2021/08/12 06:35:36;;;;;;;11.80;7.77;;;;;;;;;;4985751;28;20493;-59
2021/08/12 06:38:03;;;;;;;10.83;8.30;;;;;;;;;;4985931;28;20480;-58
2021/08/12 06:40:29;;;;;;;11.43;8.93;;;;;;;;;;4985639;28;20819;-59
2021/08/12 06:42:56;;;;;;;12.43;8.20;;;;;;;;;;4993216;28;20445;-59
2021/08/12 06:45:23;;;;;;;7.47;6.70;;;;;;;;;;4987360;28;20548;-59
2021/08/12 06:47:50;;;;;;;11.63;7.73;;;;;;;;;;4993092;28;20434;-62
2021/08/12 06:50:17;;;;;;;9.53;7.27;;;;;;;;;;4993374;28;20431;-61
2021/08/12 06:52:43;;;;;;;8.67;7.13;;;;;;;;;;4993040;28;20464;-61
2021/08/12 06:55:09;;;;;;;12.50;8.17;;;;;;;;;;4993652;28;20481;-61
2021/08/12 06:57:35;;;;;;;11.43;8.30;;;;;;;;;;4993034;28;20428;-59
2021/08/12 07:00:01;;;;;;;11.23;8.37;;;;;;;;;;4994213;28;20707;-58
2021/08/12 07:02:28;;;;;;;9.80;8.10;;;;;;;;;;4993671;28;20448;-59
2021/08/12 07:04:54;;;;;;;8.90;7.40;;;;;;;;;;4996631;28;20511;-56
2021/08/12 07:07:20;;;;;;;11.87;8.03;;;;;;;;;;4994132;28;20881;-63
2021/08/12 07:09:47;;;;;;;8.77;7.73;;;;;;;;;;4994115;28;20413;-60
2021/08/12 07:12:13;;;;;;;8.60;7.80;;;;;;;;;;4989793;28;20490;-61
2021/08/12 07:14:40;;;;;;;8.50;6.63;;;;;;;;;;4996352;28;20423;-60
2021/08/12 07:17:06;;;;;;;9.10;8.20;;;;;;;;;;4982826;28;20812;-63
2021/08/12 07:19:32;;;;;;;7.73;6.67;;;;;;;;;;4995755;28;20404;-64
2021/08/12 07:21:58;;;;;;;14.50;7.40;;;;;;;;;;4991318;28;20455;-61
2021/08/12 07:24:25;;;;;;;7.73;6.60;;;;;;;;;;4995559;28;20461;-62
2021/08/12 07:26:51;;;;;;;9.97;6.90;;;;;;;;;;4995304;28;20424;-58
2021/08/12 07:29:18;;;;;;;11.53;6.60;;;;;;;;;;4993716;28;20772;-57
2021/08/12 07:31:45;;;;;;;9.60;6.10;;;;;;;;;;4997593;28;20431;-57
2021/08/12 07:34:11;;;;;;;11.40;7.27;;;;;;;;;;5004087;28;20459;-54
2021/08/12 07:36:38;;;;;;;9.67;7.30;;;;;;;;;;5016380;28;20479;-59
2021/08/12 07:39:05;;;;;;;8.53;6.73;;;;;;;;;;4996639;28;20428;-57
2021/08/12 07:41:31;;;;;;;8.27;5.70;;;;;;;;;;4994785;28;20455;-59
2021/08/12 07:43:57;;;;;;;9.77;7.20;;;;;;;;;;4995546;28;20432;-59
2021/08/12 07:46:24;;;;;;;11.33;7.33;;;;;;;;;;4986788;28;20408;-56
2021/08/12 07:48:50;;;;;;;8.03;6.30;;;;;;;;;;4989478;28;20428;-58
2021/08/12 07:51:16;;;;;;;6.97;5.87;;;;;;;;;;4995948;28;20505;-58
2021/08/12 07:53:43;;;;;;;8.37;6.50;;;;;;;;;;4994386;28;20855;-62
2021/08/12 07:56:11;;;;;;;9.03;6.23;;;;;;;;;;4996206;28;20500;-59
2021/08/12 07:58:37;;;;;;;7.73;6.33;;;;;;;;;;4995694;28;20428;-59
2021/08/12 08:01:03;;;;;;;10.20;7.77;;;;;;;;;;4988402;28;20456;-60
2021/08/12 08:03:29;;;;;;;9.33;6.60;;;;;;;;;;4985682;28;20839;-62
2021/08/12 08:05:57;;;;;;;8.03;7.03;;;;;;;;;;4994002;28;20429;-63
2021/08/12 08:08:23;;;;;;;9.87;6.10;;;;;;;;;;4998708;28;20416;-63
2021/08/12 08:10:49;;;;;;;7.83;7.00;;;;;;;;;;4997149;28;20463;-59
2021/08/12 08:13:15;;;;;;;11.90;5.93;;;;;;;;;;4990466;28;20965;-59
2021/08/12 08:15:41;;;;;;;9.03;6.70;;;;;;;;;;4976855;28;20401;-61
2021/08/12 08:18:07;;;;;;;7.33;6.57;;;;;;;;;;4982250;28;20511;-63
2021/08/12 08:20:33;;;;;;;8.50;6.77;;;;;;;;;;4997139;28;20452;-59
2021/08/12 08:23:04;;;;;;;8.10;6.60;;;;;;;;;;4995073;28;20479;-59
2021/08/12 08:25:31;;;;;;;10.40;7.30;;;;;;;;;;4984773;28;20793;-59
2021/08/12 08:27:57;;;;;;;13.10;7.93;;;;;;;;;;4990181;28;20436;-63
2021/08/12 08:30:23;;;;;;;8.50;6.63;;;;;;;;;;4988570;28;20984;-60
2021/08/12 08:32:49;;;;;;;14.17;6.77;;;;;;;;;;4994932;28;20547;-59
2021/08/12 08:35:15;;;;;;;8.87;7.10;;;;;;;;;;4995772;28;20424;-60
2021/08/12 08:37:41;;;;;;;9.33;6.50;;;;;;;;;;4993918;28;20504;-60
2021/08/12 08:40:08;;;;;;;9.40;8.13;;;;;;;;;;4996420;28;20470;-61
2021/08/12 08:42:34;;;;;;;10.03;7.00;;;;;;;;;;4995491;28;20815;-58
2021/08/12 08:45:00;;;;;;;9.40;6.70;;;;;;;;;;4994797;28;20432;-60
2021/08/12 08:47:27;;;;;;;8.57;7.50;;;;;;;;;;4991111;28;20408;-60
2021/08/12 08:49:54;;;;;;;12.20;7.00;;;;;;;;;;4994211;28;20428;-60
2021/08/12 08:52:22;;;;;;;12.40;7.80;;;;;;;;;;5015136;28;20427;-60
2021/08/12 08:54:49;;;;;;;8.20;7.03;;;;;;;;;;5000023;28;20432;-60
2021/08/12 08:57:15;;;;;;;12.63;7.60;;;;;;;;;;4995589;28;20415;-61
2021/08/12 08:59:42;;;;;;;8.33;6.60;;;;;;;;;;4994882;28;20472;-60
2021/08/12 09:02:09;;;;;;;10.00;6.10;;;;;;;;;;4995971;28;20486;-59
2021/08/12 09:04:35;;;;;;;11.60;7.47;;;;;;;;;;4988890;28;20436;-60
2021/08/12 09:07:05;;;;;;;8.67;7.03;;;;;;;;;;4975931;28;20464;-60
2021/08/12 09:09:32;;;;;;;7.70;6.47;;;;;;;;;;4991046;28;20423;-59
2021/08/12 09:12:00;;;;;;;8.37;6.53;;;;;;;;;;5014467;28;20432;-61
2021/08/12 09:14:36;;;;;;;7.23;6.30;;;;;;;;;;5003785;28;20463;-61
2021/08/12 09:17:23;;;;;;;8.70;7.47;;;;;;;;;;4995284;28;20415;-60
2021/08/12 09:19:58;;;;;;;7.90;6.03;;;;;;;;;;4994638;28;20436;-61
2021/08/12 09:22:24;;;;;;;9.53;7.00;;;;;;;;;;4981163;28;20438;-61
2021/08/12 09:24:50;;;;;;;10.10;7.23;;;;;;;;;;4994112;28;20479;-60
2021/08/12 09:27:23;;;;;;;9.73;6.30;;;;;;;;;;4993105;28;20419;-62
2021/08/12 09:29:49;;;;;;;8.47;6.50;;;;;;;;;;4984462;28;20427;-63
2021/08/12 09:32:19;;;;;;;12.40;7.80;;;;;;;;;;4989945;28;20476;-61
2021/08/12 09:34:46;;;;;;;10.57;7.00;;;;;;;;;;4990052;28;20525;-62
2021/08/12 09:37:13;;;;;;;9.83;7.00;;;;;;;;;;4995312;28;20396;-62
2021/08/12 09:39:39;;;;;;;9.30;6.40;;;;;;;;;;4994326;28;20945;-62
2021/08/12 09:42:06;;;;;;;9.60;6.60;;;;;;;;;;4995025;28;20416;-62
2021/08/12 09:44:32;;;;;;;8.43;7.00;;;;;;;;;;4992540;28;20452;-62
2021/08/12 09:46:58;;;;;;;7.93;6.33;;;;;;;;;;4994172;28;20925;-62
2021/08/12 09:49:25;;;;;;;8.83;6.63;;;;;;;;;;4994275;28;20500;-61
2021/08/12 09:51:51;;;;;;;10.37;7.40;;;;;;;;;;4994774;28;20476;-61
2021/08/12 09:54:30;;;;;;;9.43;7.10;;;;;;;;;;4994243;28;20458;-60
2021/08/12 09:56:56;;;;;;;9.50;6.90;;;;;;;;;;4995368;28;20467;-61
2021/08/12 09:59:22;;;;;;;9.00;7.00;;;;;;;;;;4995160;28;20427;-61
2021/08/12 10:01:48;;;;;;;7.93;6.20;;;;;;;;;;4982324;28;20437;-61
2021/08/12 10:04:40;;;;;;;9.30;6.40;;;;;;;;;;4976016;28;20895;-60
2021/08/12 10:07:06;;;;;;;10.40;6.27;;;;;;;;;;4991495;28;20439;-60
2021/08/12 10:09:41;;;;;;;9.50;7.23;;;;;;;;;;4993949;28;20470;-61
2021/08/12 10:12:09;;;;;;;7.70;6.70;;;;;;;;;;4994026;28;20491;-61
2021/08/12 10:14:35;;;;;;;9.50;6.80;;;;;;;;;;4993673;28;20464;-62
2021/08/12 10:17:02;;;;;;;7.00;6.27;;;;;;;;;;4993499;28;20416;-62
2021/08/12 10:19:30;;;;;;;10.53;6.80;;;;;;;;;;4993763;28;20424;-62
2021/08/12 10:21:56;;;;;;;8.93;7.27;;;;;;;;;;4993742;28;20435;-62
2021/08/12 10:24:25;;;;;;;8.80;6.47;;;;;;;;;;4993467;28;20404;-62
2021/08/12 10:26:52;;;;;;;8.00;6.30;;;;;;;;;;4995354;28;20490;-62
2021/08/12 10:29:23;;;;;;;8.30;6.20;;;;;;;;;;4994669;28;20821;-62
2021/08/12 10:31:49;;;;;;;7.60;6.80;;;;;;;;;;4994193;28;20436;-61
2021/08/12 10:34:15;;;;;;;7.83;6.60;;;;;;;;;;4993560;28;20452;-61
2021/08/12 10:36:41;;;;;;;7.93;6.73;;;;;;;;;;4995378;28;20470;-62
2021/08/12 10:39:08;;;;;;;7.50;6.50;;;;;;;;;;4998903;28;20400;-61
2021/08/12 10:41:37;;;;;;;10.13;7.30;;;;;;;;;;4997350;28;20463;-61
2021/08/12 10:44:04;;;;;;;8.37;7.27;;;;;;;;;;4998084;28;20438;-61
2021/08/12 10:46:35;;;;;;;8.80;6.60;;;;;;;;;;4997373;28;20869;-61
2021/08/12 10:49:20;;;;;;;7.87;5.93;;;;;;;;;;4999505;28;20741;-61
2021/08/12 10:51:51;;;;;;;7.70;6.47;;;;;;;;;;4996908;28;20789;-61
2021/08/12 10:54:18;;;;;;;7.30;6.47;;;;;;;;;;4996372;28;20456;-61
2021/08/12 10:56:44;;;;;;;8.47;6.30;;;;;;;;;;4997487;28;20428;-61
2021/08/12 10:59:10;;;;;;;7.70;6.80;;;;;;;;;;4998097;28;20411;-61
2021/08/12 11:01:37;;;;;;;10.67;6.77;;;;;;;;;;4996221;28;20777;-60
2021/08/12 11:04:04;;;;;;;7.87;6.37;;;;;;;;;;4984960;28;20504;-61
2021/08/12 11:06:37;;;;;;;8.50;6.57;;;;;;;;;;4997318;28;20427;-61
2021/08/12 11:09:05;;;;;;;8.97;6.57;;;;;;;;;;4997848;28;20408;-61
2021/08/12 11:11:31;;;;;;;9.50;7.57;;;;;;;;;;4996879;28;20767;-61
2021/08/12 11:14:11;;;;;;;7.13;6.00;;;;;;;;;;4987410;28;20448;-61
2021/08/12 11:16:45;;;;;;;8.23;6.63;;;;;;;;;;4994233;28;20981;-61
2021/08/12 11:19:28;;;;;;;7.93;5.80;;;;;;;;;;4997639;28;20448;-61
2021/08/12 11:21:54;;;;;;;6.63;5.80;;;;;;;;;;4996480;28;20447;-61
2021/08/12 11:24:23;;;;;;;6.43;5.63;;;;;;;;;;4985728;28;20428;-61
2021/08/12 11:26:50;;;;;;;7.77;6.13;;;;;;;;;;4997219;28;20432;-61
2021/08/12 11:29:28;;;;;;;6.63;5.60;;;;;;;;;;4997414;28;20619;-61
2021/08/12 11:31:58;;;;;;;7.53;6.03;;;;;;;;;;4996138;28;20463;-61
2021/08/12 11:34:27;;;;;;;8.40;6.20;;;;;;;;;;4996458;28;20636;-61
2021/08/12 11:37:08;;;;;;;8.40;6.20;;;;;;;;;;4996806;28;20821;-61
2021/08/12 11:39:45;;;;;;;6.20;5.60;;;;;;;;;;4997425;28;20407;-61
2021/08/12 11:42:23;;;;;;;7.70;6.60;;;;;;;;;;4996779;28;20443;-61
2021/08/12 11:44:50;;;;;;;7.43;6.60;;;;;;;;;;4980232;28;20416;-60
2021/08/12 11:47:16;;;;;;;7.70;5.40;;;;;;;;;;4994280;28;20412;-61
2021/08/12 11:49:49;;;;;;;7.20;5.80;;;;;;;;;;4996587;28;20408;-60
2021/08/12 11:52:42;;;;;;;7.90;5.90;;;;;;;;;;5014352;28;21008;-62
2021/08/12 11:55:09;;;;;;;12.37;6.47;;;;;;;;;;4993167;28;20439;-62
2021/08/12 11:57:45;;;;;;;7.03;6.20;;;;;;;;;;4995848;28;20427;-62
2021/08/12 12:00:13;;;;;;;7.07;5.73;;;;;;;;;;4996461;28;20428;-62
2021/08/12 12:02:48;;;;;;;8.20;5.90;;;;;;;;;;4996255;28;20404;-62
2021/08/12 12:05:14;;;;;;;5.93;5.20;;;;;;;;;;4995495;28;20423;-62
2021/08/12 12:07:41;;;;;;;7.53;5.40;;;;;;;;;;4995879;28;20510;-62
2021/08/12 12:10:07;;;;;;;9.83;5.93;;;;;;;;;;4996271;28;20963;-62
2021/08/12 12:12:33;;;;;;;5.90;5.10;;;;;;;;;;4996706;28;20487;-62
2021/08/12 12:14:59;;;;;;;8.40;5.77;;;;;;;;;;4995563;28;20408;-61
2021/08/12 12:17:25;;;;;;;5.83;5.23;;;;;;;;;;4995991;28;20432;-62
2021/08/12 12:20:11;;;;;;;8.00;5.23;;;;;;;;;;4997342;28;20404;-61
2021/08/12 12:22:39;;;;;;;10.73;5.30;;;;;;;;;;4976746;28;20417;-62
2021/08/12 12:25:06;;;;;;;7.47;5.60;;;;;;;;;;4976683;28;20409;-61
2021/08/12 12:27:32;;;;;;;6.90;5.33;;;;;;;;;;4996205;28;20416;-61
2021/08/12 12:30:25;;;;;;;6.17;5.07;;;;;;;;;;4996528;28;20495;-61
2021/08/12 12:33:24;;;;;;;7.87;5.77;;;;;;;;;;4973742;28;20477;-61
2021/08/12 12:35:51;;;;;;;6.67;5.73;;;;;;;;;;4971116;28;20436;-61
2021/08/12 12:38:21;;;;;;;7.33;4.70;;;;;;;;;;4996292;28;20423;-61
2021/08/12 12:40:47;;;;;;;7.03;5.90;;;;;;;;;;4995367;28;20499;-61
2021/08/12 12:43:14;;;;;;;11.90;5.50;;;;;;;;;;4995904;28;20503;-61
2021/08/12 12:45:53;;;;;;;6.80;5.60;;;;;;;;;;4994200;28;20467;-61
2021/08/12 12:48:34;;;;;;;6.20;5.60;;;;;;;;;;4996220;28;20936;-61
2021/08/12 12:51:02;;;;;;;7.93;5.60;;;;;;;;;;4994342;28;20483;-62
2021/08/12 12:53:28;;;;;;;8.90;5.37;;;;;;;;;;4995325;28;20980;-61
2021/08/12 12:55:54;;;;;;;6.67;5.20;;;;;;;;;;4991023;28;20421;-61
2021/08/12 12:58:20;;;;;;;6.70;5.63;;;;;;;;;;4995046;28;20491;-62
2021/08/12 13:00:57;;;;;;;5.57;4.80;;;;;;;;;;4994422;28;20467;-61
2021/08/12 13:03:29;;;;;;;8.10;4.90;;;;;;;;;;4984480;28;20403;-62
2021/08/12 13:05:58;;;;;;;6.50;4.83;;;;;;;;;;4988885;28;20478;-62
2021/08/12 13:08:24;;;;;;;5.90;5.27;;;;;;;;;;4995257;28;20408;-62
2021/08/12 13:11:09;;;;;;;5.83;4.80;;;;;;;;;;4994723;28;20798;-62
2021/08/12 13:13:36;;;;;;;6.10;4.93;;;;;;;;;;4981270;28;21030;-62
2021/08/12 13:16:06;;;;;;;12.30;5.57;;;;;;;;;;4985964;28;20440;-60
2021/08/12 13:18:53;;;;;;;8.17;6.07;;;;;;;;;;4995340;28;20405;-60
2021/08/12 13:21:39;;;;;;;9.33;5.80;;;;;;;;;;4994013;28;20436;-62
2021/08/12 13:24:05;;;;;;;10.50;5.00;;;;;;;;;;4987916;28;20429;-62
2021/08/12 13:26:36;;;;;;;5.93;4.30;;;;;;;;;;4989048;28;20837;-62
2021/08/12 13:29:07;;;;;;;6.53;5.07;;;;;;;;;;4994999;28;20420;-61
2021/08/12 13:31:41;;;;;;;6.73;5.50;;;;;;;;;;4993893;28;20447;-61
2021/08/12 13:34:07;;;;;;;7.67;4.90;;;;;;;;;;4989916;28;20507;-61
2021/08/12 13:36:34;;;;;;;5.70;4.87;;;;;;;;;;4987085;28;20448;-62
2021/08/12 13:39:00;;;;;;;8.50;5.43;;;;;;;;;;4995010;28;20827;-61
2021/08/12 13:41:28;;;;;;;6.90;5.80;;;;;;;;;;4992996;28;20460;-61
2021/08/12 13:43:54;;;;;;;7.73;5.20;;;;;;;;;;4993934;28;20416;-61
2021/08/12 13:46:20;;;;;;;7.33;5.93;;;;;;;;;;4991897;28;20776;-60
2021/08/12 13:48:46;;;;;;;6.80;4.80;;;;;;;;;;4994702;28;20821;-62
2021/08/12 13:51:12;;;;;;;7.43;5.90;;;;;;;;;;4993428;28;20439;-62
2021/08/12 13:53:38;;;;;;;6.43;5.83;;;;;;;;;;4995139;28;20468;-62
2021/08/12 13:56:04;;;;;;;6.07;4.70;;;;;;;;;;4982774;28;20766;-62
2021/08/12 13:58:30;;;;;;;7.00;5.57;;;;;;;;;;4987879;28;20555;-62
2021/08/12 14:00:58;;;;;;;6.40;4.90;;;;;;;;;;4993849;28;20456;-62
2021/08/12 14:03:24;;;;;;;5.97;4.90;;;;;;;;;;4994915;28;20995;-62
2021/08/12 14:05:50;;;;;;;8.00;5.10;;;;;;;;;;4992528;28;20726;-62
2021/08/12 14:08:16;;;;;;;6.70;5.33;;;;;;;;;;4993120;28;20785;-62
2021/08/12 14:10:42;;;;;;;8.93;5.70;;;;;;;;;;4993711;28;20519;-62
2021/08/12 14:13:09;;;;;;;7.87;5.80;;;;;;;;;;5002647;28;20463;-62
2021/08/12 14:15:35;;;;;;;7.43;5.53;;;;;;;;;;5006292;28;20417;-62
2021/08/12 14:18:01;;;;;;;6.07;5.43;;;;;;;;;;4986283;28;20994;-62
2021/08/12 14:20:27;;;;;;;7.90;5.30;;;;;;;;;;4993826;28;20420;-62
2021/08/12 14:22:53;;;;;;;5.67;4.80;;;;;;;;;;4990176;28;20420;-61
2021/08/12 14:25:19;;;;;;;7.30;4.50;;;;;;;;;;4982345;28;20470;-62
2021/08/12 14:27:47;;;;;;;5.53;4.40;;;;;;;;;;4993068;28;20920;-62
2021/08/12 14:30:13;;;;;;;6.07;4.97;;;;;;;;;;4994113;28;20507;-62
2021/08/12 14:32:39;;;;;;;6.80;5.10;;;;;;;;;;4993662;28;20839;-62
2021/08/12 14:35:06;;;;;;;7.10;6.00;;;;;;;;;;4989937;28;20899;-62
2021/08/12 14:37:32;;;;;;;6.20;5.43;;;;;;;;;;4979267;28;20424;-62
2021/08/12 14:40:02;;;;;;;7.10;5.70;;;;;;;;;;4993428;28;21035;-62